createdAt,value
2023-01-20T00:01:46.598Z,10.13
2023-01-20T00:04:13.879Z,8.32
2023-01-20T00:06:40.728Z,6.93
2023-01-20T00:09:08.235Z,6.75
2023-01-20T00:11:35.048Z,12.40
2023-01-20T00:14:03.019Z,9.98
2023-01-20T00:16:32.030Z,8.63
2023-01-20T00:18:58.953Z,6.70
2023-01-20T00:21:25.717Z,8.35
2023-01-20T00:23:52.674Z,6.53
2023-01-20T00:26:22.079Z,14.80
2023-01-20T00:28:49.946Z,8.50
2023-01-20T00:31:17.931Z,8.38
2023-01-20T00:33:45.844Z,8.88
2023-01-20T00:36:14.009Z,8.32
2023-01-20T00:38:41.000Z,9.57
2023-01-20T00:41:08.592Z,8.13
2023-01-20T00:43:36.173Z,13.35
2023-01-20T00:46:04.127Z,9.50
2023-01-20T00:48:31.011Z,8.68
2023-01-20T00:50:58.232Z,10.85
2023-01-20T00:53:25.281Z,10.23
2023-01-20T00:55:52.117Z,14.98
2023-01-20T00:58:19.115Z,11.20
2023-01-20T01:00:50.643Z,10.85
2023-01-20T01:03:18.301Z,7.00
2023-01-20T01:05:45.951Z,10.82
2023-01-20T01:08:13.608Z,9.23
2023-01-20T01:10:40.790Z,10.00
2023-01-20T01:13:08.366Z,11.52
2023-01-20T01:15:35.816Z,14.18
2023-01-20T01:18:03.375Z,10.00
2023-01-20T01:20:30.661Z,12.13
2023-01-20T01:22:57.527Z,10.70
2023-01-20T01:25:24.486Z,9.43
2023-01-20T01:27:51.342Z,9.52
2023-01-20T01:30:18.247Z,11.95
2023-01-20T01:32:45.121Z,11.43
2023-01-20T01:35:12.300Z,13.02
2023-01-20T01:37:39.535Z,9.05
2023-01-20T01:40:07.146Z,10.30
2023-01-20T01:42:34.159Z,15.50
2023-01-20T01:45:10.159Z,9.55
2023-01-20T01:47:46.463Z,10.45
2023-01-20T01:50:19.726Z,9.75
2023-01-20T01:52:49.496Z,12.75
2023-01-20T01:55:17.592Z,9.00
2023-01-20T01:57:45.060Z,10.45
2023-01-20T02:00:12.573Z,9.82
2023-01-20T02:05:13.437Z,12.38
2023-01-20T02:07:42.361Z,10.85
2023-01-20T02:10:09.794Z,8.40
2023-01-20T02:12:36.820Z,14.07
2023-01-20T02:15:05.403Z,12.80
2023-01-20T02:17:34.043Z,10.50
2023-01-20T02:20:16.523Z,11.73
2023-01-20T02:23:10.756Z,11.43
2023-01-20T02:26:04.705Z,16.88
2023-01-20T02:28:46.860Z,20.33
2023-01-20T02:31:50.561Z,9.25
2023-01-20T02:34:31.624Z,11.77
2023-01-20T02:37:06.492Z,12.40
2023-01-20T02:39:55.753Z,15.10
2023-01-20T02:42:35.023Z,11.48
2023-01-20T02:45:28.211Z,11.77
2023-01-20T02:48:25.858Z,12.13
2023-01-20T02:50:59.195Z,10.85
2023-01-20T02:53:32.382Z,12.18
2023-01-20T02:55:59.709Z,11.98
2023-01-20T02:58:38.124Z,12.98
2023-01-20T03:01:13.798Z,12.65
2023-01-20T03:03:45.884Z,11.30
2023-01-20T03:06:19.087Z,13.20
2023-01-20T03:08:48.704Z,12.02
2023-01-20T03:11:16.235Z,9.85
2023-01-20T03:14:11.576Z,10.00
2023-01-20T03:16:39.847Z,8.88
2023-01-20T03:19:06.808Z,8.10
2023-01-20T03:21:35.026Z,10.30
2023-01-20T03:24:03.411Z,9.75
2023-01-20T03:26:31.063Z,9.77
2023-01-20T03:28:58.933Z,13.52
2023-01-20T03:31:32.967Z,11.75
2023-01-20T03:34:03.204Z,8.68
2023-01-20T03:36:31.856Z,11.15
2023-01-20T03:38:59.280Z,9.50
2023-01-20T03:41:47.831Z,9.48
2023-01-20T03:44:40.580Z,10.73
2023-01-20T03:47:48.470Z,10.05
2023-01-20T03:50:34.703Z,10.13
2023-01-20T03:53:27.451Z,8.73
2023-01-20T03:56:03.023Z,8.10
2023-01-20T03:58:36.156Z,9.90
2023-01-20T04:01:15.584Z,8.60
2023-01-20T04:03:48.198Z,9.68
2023-01-20T04:06:17.911Z,8.15
2023-01-20T04:08:49.413Z,9.27
2023-01-20T04:11:16.565Z,9.55
2023-01-20T04:13:43.517Z,8.88
2023-01-20T04:16:17.035Z,8.13
2023-01-20T04:18:47.101Z,15.07
2023-01-20T04:21:24.403Z,9.13
2023-01-20T04:24:01.288Z,10.63
2023-01-20T04:26:28.061Z,9.98
2023-01-20T04:28:54.837Z,11.88
2023-01-20T04:31:30.539Z,7.38
2023-01-20T04:33:58.365Z,10.32
2023-01-20T04:36:25.240Z,9.95
2023-01-20T04:38:52.079Z,9.52
2023-01-20T04:41:19.022Z,7.90
2023-01-20T04:43:46.764Z,12.98
2023-01-20T04:46:14.841Z,13.43
2023-01-20T04:48:41.736Z,8.02
2023-01-20T04:51:08.783Z,6.55
2023-01-20T04:53:35.795Z,10.05
2023-01-20T04:56:02.625Z,13.45
2023-01-20T04:58:29.443Z,9.05
2023-01-20T05:00:56.360Z,14.50
2023-01-20T05:03:23.244Z,8.70
2023-01-20T05:05:54.437Z,8.30
2023-01-20T05:08:21.698Z,8.68
2023-01-20T05:10:48.702Z,10.02
2023-01-20T05:13:15.793Z,10.57
2023-01-20T05:15:43.744Z,10.13
2023-01-20T05:18:10.792Z,10.30
2023-01-20T05:20:37.672Z,14.60
2023-01-20T05:23:04.791Z,11.73
2023-01-20T05:25:31.567Z,10.52
2023-01-20T05:27:59.288Z,8.60
2023-01-20T05:30:26.154Z,15.35
2023-01-20T05:32:53.002Z,14.02
2023-01-20T05:35:20.061Z,11.57
2023-01-20T05:37:46.916Z,8.77
2023-01-20T05:40:14.277Z,10.30
2023-01-20T05:42:41.155Z,11.90
2023-01-20T05:45:09.382Z,11.27
2023-01-20T05:47:36.236Z,8.18
2023-01-20T05:50:04.850Z,10.25
2023-01-20T05:52:31.797Z,10.82
2023-01-20T05:54:58.803Z,11.15
2023-01-20T05:57:26.078Z,14.43
2023-01-20T05:59:52.968Z,13.70
2023-01-20T06:02:20.414Z,10.95
2023-01-20T06:04:47.689Z,11.13
2023-01-20T06:07:15.397Z,9.63
2023-01-20T06:09:42.434Z,10.77
2023-01-20T06:12:09.423Z,13.10
2023-01-20T06:14:36.320Z,10.73
2023-01-20T06:17:03.161Z,13.93
2023-01-20T06:19:30.085Z,9.73
2023-01-20T06:21:56.962Z,10.95
2023-01-20T06:24:23.759Z,8.50
2023-01-20T06:26:51.435Z,9.70
2023-01-20T06:29:18.350Z,8.25
2023-01-20T06:31:45.681Z,10.27
2023-01-20T06:34:12.886Z,11.75
2023-01-20T06:36:39.984Z,10.02
2023-01-20T06:39:07.054Z,11.25
2023-01-20T06:41:33.969Z,13.32
2023-01-20T06:44:03.484Z,9.25
2023-01-20T06:46:30.452Z,12.07
2023-01-20T06:49:00.580Z,11.48
2023-01-20T06:51:29.986Z,9.98
2023-01-20T06:53:57.718Z,10.93
2023-01-20T06:56:25.047Z,11.05
2023-01-20T06:58:52.143Z,8.88
2023-01-20T07:01:27.478Z,8.35
2023-01-20T07:03:54.838Z,11.75
2023-01-20T07:06:39.028Z,10.73
2023-01-20T07:09:08.585Z,7.68
2023-01-20T07:11:35.952Z,6.50
2023-01-20T07:14:04.026Z,11.15
2023-01-20T07:16:31.283Z,6.57
2023-01-20T07:18:58.331Z,9.43
2023-01-20T07:21:26.675Z,8.73
2023-01-20T07:23:54.178Z,8.85
2023-01-20T07:26:26.529Z,11.45
2023-01-20T07:28:53.903Z,8.35
2023-01-20T07:31:25.427Z,7.22
2023-01-20T07:33:54.475Z,7.03
2023-01-20T07:36:21.286Z,6.00
2023-01-20T07:38:50.117Z,7.82
2023-01-20T07:41:19.704Z,7.15
2023-01-20T07:43:48.415Z,8.25
2023-01-20T07:46:16.557Z,10.23
2023-01-20T07:48:43.667Z,9.40
2023-01-20T07:51:13.162Z,6.28
2023-01-20T07:53:46.524Z,8.40
2023-01-20T07:56:16.146Z,8.70
2023-01-20T07:58:45.298Z,7.38
2023-01-20T08:01:15.800Z,16.20
2023-01-20T08:03:43.826Z,11.80
2023-01-20T08:06:12.766Z,7.88
2023-01-20T08:08:39.639Z,9.27
2023-01-20T08:11:07.757Z,11.93
2023-01-20T08:13:35.185Z,10.35
2023-01-20T08:16:08.825Z,8.82
2023-01-20T08:18:36.514Z,9.18
2023-01-20T08:21:08.447Z,9.38
2023-01-20T08:23:36.092Z,7.28
2023-01-20T08:26:05.908Z,9.93
2023-01-20T08:28:37.637Z,9.25
2023-01-20T08:31:16.243Z,10.95
2023-01-20T08:33:43.857Z,8.35
2023-01-20T08:36:17.352Z,11.73
2023-01-20T08:38:44.643Z,9.43
2023-01-20T08:41:14.661Z,9.70
2023-01-20T08:43:42.504Z,10.20
2023-01-20T08:46:13.404Z,10.00
2023-01-20T08:48:42.029Z,8.32
2023-01-20T08:51:14.700Z,12.40
2023-01-20T08:53:42.192Z,12.35
2023-01-20T08:56:09.923Z,10.57
2023-01-20T08:58:36.778Z,12.00
2023-01-20T09:01:12.007Z,10.98
2023-01-20T09:03:39.979Z,13.20
2023-01-20T09:06:07.842Z,11.40
2023-01-20T09:08:34.879Z,11.70
2023-01-20T09:11:07.464Z,12.57
2023-01-20T09:13:34.478Z,10.68
2023-01-20T09:16:01.413Z,14.38
2023-01-20T09:18:28.322Z,10.75
2023-01-20T09:20:56.870Z,10.00
2023-01-20T09:23:23.699Z,7.55
2023-01-20T09:25:50.557Z,9.13
2023-01-20T09:28:17.507Z,8.77
2023-01-20T09:30:44.464Z,7.18
2023-01-20T09:33:13.167Z,10.23
2023-01-20T09:35:40.088Z,6.90
2023-01-20T09:38:25.246Z,9.13
2023-01-20T09:41:35.343Z,7.72
2023-01-20T09:44:21.263Z,10.02
2023-01-20T09:47:21.496Z,6.38
2023-01-20T09:50:34.970Z,7.32
2023-01-20T09:53:30.257Z,8.77
2023-01-20T09:55:59.691Z,11.60
2023-01-20T09:58:35.337Z,7.27
2023-01-20T10:01:30.892Z,6.53
2023-01-20T10:04:06.766Z,11.70
2023-01-20T10:06:57.970Z,10.82
2023-01-20T10:09:46.074Z,9.57
2023-01-20T10:12:15.886Z,12.43
2023-01-20T10:14:46.521Z,9.23
2023-01-20T10:17:23.697Z,8.48
2023-01-20T10:20:05.121Z,15.18
2023-01-20T10:22:42.649Z,9.02
2023-01-20T10:25:13.160Z,9.25
2023-01-20T10:27:49.241Z,12.55
2023-01-20T10:30:17.073Z,9.00
2023-01-20T10:33:03.917Z,7.03
2023-01-20T10:35:36.915Z,10.00
2023-01-20T10:38:08.709Z,7.13
2023-01-20T10:40:46.658Z,10.70
2023-01-20T10:43:15.890Z,9.75
2023-01-20T10:45:48.510Z,10.07
2023-01-20T10:48:18.196Z,9.73
2023-01-20T10:51:04.934Z,9.40
2023-01-20T10:53:34.782Z,8.85
2023-01-20T10:56:04.656Z,9.13
2023-01-20T10:58:40.980Z,9.98
2023-01-20T11:01:11.063Z,8.75
2023-01-20T11:03:42.670Z,8.20
2023-01-20T11:06:22.208Z,8.07
2023-01-20T11:08:49.756Z,7.87
2023-01-20T11:11:22.972Z,7.38
2023-01-20T11:13:54.267Z,8.95
2023-01-20T11:16:25.377Z,13.10
2023-01-20T11:19:02.007Z,8.85
2023-01-20T11:21:32.176Z,6.45
2023-01-20T11:23:59.886Z,7.03
2023-01-20T11:26:32.591Z,8.55
2023-01-20T11:29:11.337Z,9.65
2023-01-20T11:31:47.145Z,6.85
2023-01-20T11:34:25.377Z,6.00
2023-01-20T11:37:16.827Z,8.70
2023-01-20T11:39:54.497Z,9.35
2023-01-20T11:42:24.884Z,9.63
2023-01-20T11:47:35.207Z,12.38
2023-01-20T11:50:05.166Z,12.93
2023-01-20T11:52:34.221Z,9.40
2023-01-20T11:55:13.032Z,6.68
2023-01-20T11:58:01.020Z,7.82
2023-01-20T12:00:43.950Z,8.68
2023-01-20T12:03:10.713Z,8.27
2023-01-20T12:06:07.963Z,7.38
2023-01-20T12:08:43.560Z,8.52
2023-01-20T12:11:14.838Z,7.38
2023-01-20T12:14:10.574Z,12.45
2023-01-20T12:16:39.138Z,9.65
2023-01-20T12:19:15.189Z,8.15
2023-01-20T12:21:48.234Z,10.10
2023-01-20T12:24:56.098Z,6.95
2023-01-20T12:27:28.110Z,9.23
2023-01-20T12:30:04.329Z,11.45
2023-01-20T12:32:33.263Z,7.93
2023-01-20T12:35:01.020Z,8.23
2023-01-20T12:37:52.302Z,8.98
2023-01-20T12:40:22.221Z,9.00
2023-01-20T12:43:17.157Z,10.90
2023-01-20T12:46:05.546Z,8.25
2023-01-20T12:48:59.153Z,7.13
2023-01-20T12:51:34.849Z,11.68
2023-01-20T12:54:14.475Z,9.48
2023-01-20T12:56:56.702Z,11.65
2023-01-20T13:00:09.278Z,9.38
2023-01-20T13:03:20.263Z,7.32
2023-01-20T13:06:01.151Z,8.40
2023-01-20T13:08:47.838Z,9.02
2023-01-20T13:11:37.466Z,9.65
2023-01-20T13:14:11.944Z,9.27
2023-01-20T13:16:44.581Z,12.10
2023-01-20T13:19:28.339Z,9.63
2023-01-20T13:22:07.232Z,12.75
2023-01-20T13:24:35.082Z,10.27
2023-01-20T13:27:02.953Z,9.98
2023-01-20T13:29:35.737Z,10.45
2023-01-20T13:32:03.681Z,11.07
2023-01-20T13:34:33.299Z,9.95
2023-01-20T13:37:03.430Z,9.23
2023-01-20T13:39:40.473Z,11.15
2023-01-20T13:42:29.118Z,14.13
2023-01-20T13:45:14.760Z,11.90
2023-01-20T13:48:01.165Z,10.38
2023-01-20T13:50:35.514Z,12.55
2023-01-20T13:53:28.121Z,9.80
2023-01-20T13:56:32.965Z,11.38
2023-01-20T13:59:00.183Z,12.27
2023-01-20T14:01:28.178Z,10.57
2023-01-20T14:04:21.904Z,10.07
2023-01-20T14:06:51.255Z,9.57
2023-01-20T14:09:20.900Z,13.90
2023-01-20T14:11:55.443Z,11.40
2023-01-20T14:14:25.283Z,12.75
2023-01-20T14:16:52.561Z,18.02
2023-01-20T14:19:32.674Z,10.75
2023-01-20T14:22:16.559Z,14.75
2023-01-20T14:24:45.059Z,17.27
2023-01-20T14:27:22.643Z,12.30
2023-01-20T14:29:51.653Z,21.42
2023-01-20T14:32:24.593Z,14.55
2023-01-20T14:34:52.668Z,19.45
2023-01-20T14:37:25.345Z,13.40
2023-01-20T14:39:54.933Z,12.32
2023-01-20T14:42:23.321Z,13.85
2023-01-20T14:44:52.061Z,13.07
2023-01-20T14:47:20.799Z,14.65
2023-01-20T14:49:49.760Z,13.85
2023-01-20T14:52:31.083Z,17.52
2023-01-20T14:54:58.130Z,16.92
2023-01-20T14:57:33.773Z,16.40
2023-01-20T15:00:12.846Z,15.43
2023-01-20T15:02:42.376Z,22.25
2023-01-20T15:05:40.844Z,17.95
2023-01-20T15:08:26.357Z,17.52
2023-01-20T15:11:24.076Z,19.13
2023-01-20T15:14:04.890Z,23.13
2023-01-20T15:16:43.103Z,17.80
2023-01-20T15:19:19.847Z,17.40
2023-01-20T15:21:56.547Z,17.88
2023-01-20T15:24:31.369Z,23.58
2023-01-20T15:27:00.684Z,15.55
2023-01-20T15:29:35.648Z,17.83
2023-01-20T15:32:12.750Z,12.43
2023-01-20T15:34:39.629Z,19.33
2023-01-20T15:37:18.848Z,14.45
2023-01-20T15:39:46.099Z,15.43
2023-01-20T15:42:15.150Z,12.10
2023-01-20T15:44:42.036Z,17.15
2023-01-20T15:47:31.185Z,13.48
2023-01-20T15:49:58.548Z,13.57
2023-01-20T15:52:25.347Z,15.45
2023-01-20T15:54:52.136Z,16.25
2023-01-20T15:57:19.093Z,12.35
2023-01-20T15:59:46.128Z,12.93
2023-01-20T16:02:23.446Z,16.13
2023-01-20T16:04:50.685Z,12.52
2023-01-20T16:07:19.513Z,18.95
2023-01-20T16:09:47.062Z,13.23
2023-01-20T16:12:15.294Z,15.13
2023-01-20T16:14:42.754Z,16.38
2023-01-20T16:17:19.273Z,18.90
2023-01-20T16:19:46.352Z,18.25
2023-01-20T16:22:14.039Z,19.38
2023-01-20T16:24:41.988Z,14.93
2023-01-20T16:27:20.738Z,12.98
2023-01-20T16:29:47.655Z,21.02
2023-01-20T16:32:17.341Z,20.35
2023-01-20T16:34:45.693Z,18.27
2023-01-20T16:37:14.503Z,18.02
2023-01-20T16:39:41.379Z,17.70
2023-01-20T16:42:11.639Z,16.30
2023-01-20T16:44:38.963Z,18.05
2023-01-20T16:47:06.635Z,17.80
2023-01-20T16:49:33.595Z,17.95
2023-01-20T16:52:00.537Z,14.00
2023-01-20T16:54:27.596Z,14.40
2023-01-20T16:56:54.390Z,14.50
2023-01-20T16:59:21.195Z,14.65
2023-01-20T17:01:49.320Z,18.50
2023-01-20T17:04:16.783Z,16.50
2023-01-20T17:06:43.642Z,16.05
2023-01-20T17:09:10.795Z,18.92
2023-01-20T17:11:40.347Z,16.08
2023-01-20T17:14:10.368Z,15.15
2023-01-20T17:16:39.003Z,14.75
2023-01-20T17:19:06.560Z,22.35
2023-01-20T17:21:37.414Z,16.65
2023-01-20T17:24:06.148Z,17.60
2023-01-20T17:26:34.492Z,17.30
2023-01-20T17:29:04.212Z,14.95
2023-01-20T17:31:34.511Z,19.02
2023-01-20T17:36:29.586Z,17.02
2023-01-20T17:38:57.896Z,21.48
2023-01-20T17:41:24.805Z,16.33
2023-01-20T17:43:51.726Z,17.08
2023-01-20T17:46:22.145Z,19.55
2023-01-20T17:51:21.593Z,25.30
2023-01-20T17:53:48.871Z,23.85
2023-01-20T17:56:16.997Z,19.73
2023-01-20T17:58:45.142Z,25.55
2023-01-20T18:01:16.273Z,16.85
2023-01-20T18:03:44.373Z,21.23
2023-01-20T18:06:13.176Z,21.10
2023-01-20T18:08:40.640Z,21.42
2023-01-20T18:11:12.800Z,23.27
2023-01-20T18:13:39.752Z,24.40
2023-01-20T18:16:08.947Z,24.80
2023-01-20T18:18:36.025Z,22.48
2023-01-20T18:21:17.619Z,21.10
2023-01-20T18:23:46.125Z,17.83
2023-01-20T18:26:14.582Z,21.80
2023-01-20T18:28:42.078Z,22.98
2023-01-20T18:31:14.442Z,19.95
2023-01-20T18:33:52.766Z,19.52
2023-01-20T18:36:30.995Z,20.52
2023-01-20T18:39:00.677Z,20.17
2023-01-20T18:41:29.780Z,23.73
2023-01-20T18:43:57.416Z,20.20
2023-01-20T18:46:25.395Z,16.70
2023-01-20T18:48:54.571Z,16.67
2023-01-20T18:51:24.659Z,18.00
2023-01-20T18:54:00.442Z,16.83
2023-01-20T18:56:28.693Z,18.90
2023-01-20T18:58:56.093Z,17.92
2023-01-20T19:01:39.516Z,15.98
2023-01-20T19:04:08.754Z,15.55
2023-01-20T19:06:38.650Z,19.13
2023-01-20T19:09:06.505Z,17.48
2023-01-20T19:11:36.415Z,18.60
2023-01-20T19:14:03.739Z,17.20
2023-01-20T19:16:32.630Z,14.35
2023-01-20T19:19:04.698Z,17.88
2023-01-20T19:21:33.140Z,18.85
2023-01-20T19:24:05.915Z,16.30
2023-01-20T19:26:35.694Z,16.75
2023-01-20T19:29:06.330Z,21.52
2023-01-20T19:31:36.003Z,15.00
2023-01-20T19:34:03.565Z,18.45
2023-01-20T19:36:30.617Z,14.32
2023-01-20T19:38:58.308Z,14.23
2023-01-20T19:41:27.853Z,11.10
2023-01-20T19:43:57.182Z,12.07
2023-01-20T19:46:29.758Z,13.70
2023-01-20T19:48:58.085Z,12.18
2023-01-20T19:51:25.874Z,11.40
2023-01-20T19:53:58.071Z,12.70
2023-01-20T19:56:27.420Z,8.55
2023-01-20T19:58:55.501Z,9.38
2023-01-20T20:01:31.119Z,12.00
2023-01-20T20:03:59.103Z,12.88
2023-01-20T20:06:35.046Z,10.23
2023-01-20T20:09:11.573Z,12.25
2023-01-20T20:11:38.977Z,16.90
2023-01-20T20:14:08.405Z,18.25
2023-01-20T20:16:36.910Z,19.00
2023-01-20T20:19:05.010Z,13.32
2023-01-20T20:21:31.902Z,14.30
2023-01-20T20:24:01.494Z,13.80
2023-01-20T20:26:31.710Z,17.77
2023-01-20T20:29:00.042Z,14.75
2023-01-20T20:31:29.349Z,15.70
2023-01-20T20:33:57.910Z,15.95
2023-01-20T20:36:28.344Z,12.88
2023-01-20T20:38:57.183Z,11.05
2023-01-20T20:41:27.251Z,14.68
2023-01-20T20:43:54.598Z,14.13
2023-01-20T20:46:21.746Z,16.75
2023-01-20T20:48:48.657Z,20.42
2023-01-20T20:51:16.956Z,15.18
2023-01-20T20:53:44.560Z,12.25
2023-01-20T20:56:14.451Z,15.73
2023-01-20T20:58:59.546Z,14.10
2023-01-20T21:01:28.988Z,12.75
2023-01-20T21:03:57.716Z,13.20
2023-01-20T21:06:25.201Z,12.02
2023-01-20T21:08:52.722Z,12.75
2023-01-20T21:11:24.157Z,12.02
2023-01-20T21:13:52.294Z,15.63
2023-01-20T21:16:22.796Z,15.48
2023-01-20T21:18:52.145Z,14.88
2023-01-20T21:21:19.669Z,15.23
2023-01-20T21:23:55.259Z,15.93
2023-01-20T21:26:24.305Z,19.15
2023-01-20T21:28:51.286Z,15.10
2023-01-20T21:31:21.437Z,15.93
2023-01-20T21:33:53.670Z,22.77
2023-01-20T21:36:21.965Z,14.80
2023-01-20T21:38:49.261Z,15.70
2023-01-20T21:41:16.710Z,13.88
2023-01-20T21:44:04.025Z,14.00
2023-01-20T21:46:35.275Z,13.98
2023-01-20T21:49:23.061Z,18.67
2023-01-20T21:52:08.506Z,15.23
2023-01-20T21:54:35.488Z,13.18
2023-01-20T21:57:02.790Z,17.30
2023-01-20T21:59:30.267Z,17.13
2023-01-20T22:01:57.123Z,15.95
2023-01-20T22:04:23.947Z,14.43
2023-01-20T22:06:50.879Z,14.07
2023-01-20T22:09:17.693Z,12.63
2023-01-20T22:11:44.633Z,13.90
2023-01-20T22:14:11.709Z,11.40
2023-01-20T22:16:38.610Z,15.70
2023-01-20T22:19:05.473Z,9.68
2023-01-20T22:21:32.793Z,16.45
2023-01-20T22:24:01.587Z,11.73
2023-01-20T22:26:28.428Z,15.70
2023-01-20T22:28:55.278Z,11.45
2023-01-20T22:31:23.976Z,12.38
2023-01-20T22:33:55.745Z,12.55
2023-01-20T22:36:24.390Z,11.45
2023-01-20T22:38:52.553Z,11.18
2023-01-20T22:41:20.673Z,16.95
2023-01-20T22:43:48.312Z,13.02
2023-01-20T22:46:17.709Z,16.25
2023-01-20T22:48:45.123Z,14.53
2023-01-20T22:51:16.607Z,15.05
2023-01-20T22:53:43.473Z,13.63
2023-01-20T22:56:18.809Z,17.10
2023-01-20T22:58:46.351Z,17.60
2023-01-20T23:01:29.775Z,17.42
2023-01-20T23:03:59.617Z,16.92
2023-01-20T23:06:28.360Z,14.30
2023-01-20T23:08:55.500Z,23.83
2023-01-20T23:11:23.631Z,14.27
2023-01-20T23:13:51.009Z,17.63
2023-01-20T23:16:22.173Z,18.50
2023-01-20T23:18:50.853Z,16.88
2023-01-20T23:21:18.452Z,16.98
2023-01-20T23:23:45.400Z,18.75
2023-01-20T23:26:18.918Z,17.45
2023-01-20T23:28:47.119Z,27.88
2023-01-20T23:31:16.010Z,22.50
2023-01-20T23:33:44.204Z,21.52
2023-01-20T23:36:21.301Z,22.02
2023-01-20T23:38:48.470Z,24.98
2023-01-20T23:41:16.000Z,21.65
2023-01-20T23:43:43.215Z,24.80
2023-01-20T23:46:10.967Z,21.67
2023-01-20T23:48:38.302Z,30.92
2023-01-20T23:51:06.600Z,27.20
2023-01-20T23:53:36.562Z,28.98
2023-01-20T23:56:24.686Z,23.83
2023-01-20T23:58:52.061Z,27.90
